Time;durP1;ratioP1;P1;durP2;ratioP2;P2;SDS_P1;SDS_P2;PMS_P1;PMS_P2;Temp;Humidity;BMP_temperature;BMP_pressure;BME280_temperature;BME280_humidity;BME280_pressure;Samples;Min_cycle;Max_cycle;Signal;HPM_P1;HPM_P2
2023/08/21 00:00:42;;;;;;;15.73;10.70;;;;;;;-141.97;50.26;47371.09;5013030;28;20219;-83
2023/08/21 00:03:07;;;;;;;15.27;10.93;;;;;;;-141.97;50.36;47363.41;5012661;28;20202;-84
2023/08/21 00:05:33;;;;;;;13.37;10.30;;;;;;;-141.97;50.41;47276.91;5012492;28;20605;-83
2023/08/21 00:07:58;;;;;;;12.77;10.40;;;;;;;-141.97;50.44;47361.47;5013324;28;20471;-83
2023/08/21 00:10:24;;;;;;;12.23;10.93;;;;;;;-141.97;50.38;47359.56;5012764;28;20170;-84
2023/08/21 00:12:49;;;;;;;11.83;10.43;;;;;;;-141.97;50.16;47361.47;5013431;28;20174;-84
2023/08/21 00:15:15;;;;;;;12.90;10.23;;;;;;;-141.97;50.32;47388.38;5026361;28;20175;-82
2023/08/21 00:17:40;;;;;;;11.30;10.07;;;;;;;-141.97;50.43;47394.16;5026371;28;20179;-85
2023/08/21 00:20:09;;;;;;;11.90;10.17;;;;;;;-141.97;50.45;47384.53;5009186;28;20301;-84
2023/08/21 00:22:35;;;;;;;13.07;10.00;;;;;;;-141.97;50.59;47140.47;5011029;28;20205;-85
2023/08/21 00:25:00;;;;;;;12.60;10.43;;;;;;;-141.97;51.47;47392.22;5012797;28;20636;-85
2023/08/21 00:27:26;;;;;;;13.27;10.83;;;;;;;-141.97;51.61;47301.91;5012524;28;20320;-85
2023/08/21 00:29:51;;;;;;;13.10;10.77;;;;;;;-141.97;51.63;47380.69;5020672;28;20196;-85
2023/08/21 00:32:16;;;;;;;14.33;10.17;;;;;;;-141.97;51.92;47417.22;5022378;28;20651;-86
2023/08/21 00:34:42;;;;;;;12.97;10.30;;;;;;;-141.97;52.17;47376.84;5012302;28;20226;-85
2023/08/21 00:37:07;;;;;;;13.43;10.80;;;;;;;-141.97;52.29;47574.81;4997505;28;20171;-85
2023/08/21 00:39:33;;;;;;;13.50;10.37;;;;;;;-141.97;52.35;47344.19;5004100;28;20248;-85
2023/08/21 00:41:58;;;;;;;14.33;10.83;;;;;;;-141.97;52.46;47394.16;5014757;28;20187;-85
2023/08/21 00:44:23;;;;;;;14.07;10.70;;;;;;;-141.97;52.66;47411.44;5012899;28;20210;-84
2023/08/21 00:46:49;;;;;;;18.00;10.90;;;;;;;-141.97;52.38;47376.84;5014461;28;20174;-84
2023/08/21 00:49:14;;;;;;;13.30;10.50;;;;;;;-141.97;52.70;47407.59;5014011;28;20612;-83
2023/08/21 00:51:40;;;;;;;12.27;10.57;;;;;;;-141.97;53.49;47386.47;5000663;28;20167;-82
2023/08/21 00:54:05;;;;;;;16.30;10.50;;;;;;;-141.97;53.21;47363.41;5014193;28;20690;-82
2023/08/21 00:56:31;;;;;;;14.70;11.00;;;;;;;-141.97;53.72;47374.94;5014775;28;20163;-81
2023/08/21 00:58:56;;;;;;;12.83;10.40;;;;;;;-141.97;54.08;47417.22;5014271;28;20171;-81
2023/08/21 01:01:27;;;;;;;16.33;10.83;;;;;;;-141.97;54.36;47386.47;5012288;28;20190;-81
2023/08/21 01:03:52;;;;;;;14.93;10.90;;;;;;;-141.97;54.58;47419.13;5012190;28;20171;-81
2023/08/21 01:06:19;;;;;;;12.60;10.17;;;;;;;-141.97;54.58;47396.06;5014495;28;20173;-83
2023/08/21 01:08:57;;;;;;;15.13;10.70;;;;;;;-141.97;55.00;47326.88;5022017;28;20167;-82
2023/08/21 01:11:42;;;;;;;13.70;10.70;;;;;;;-141.97;55.15;47432.59;5017650;28;20175;-82
2023/08/21 01:14:23;;;;;;;13.20;10.23;;;;;;;-141.97;55.57;47411.44;5011681;28;20174;-81
2023/08/21 01:16:53;;;;;;;14.20;10.50;;;;;;;-141.97;55.75;47413.38;5012765;28;20193;-81
2023/08/21 01:19:31;;;;;;;14.07;10.20;;;;;;;-141.97;55.76;47317.28;5013609;28;20312;-81
2023/08/21 01:21:59;;;;;;;12.17;9.73;;;;;;;-141.97;55.72;47403.75;5013141;28;20178;-82
2023/08/21 01:24:24;;;;;;;13.50;10.60;;;;;;;-141.97;56.02;47430.66;5010686;28;20649;-81
2023/08/21 01:26:50;;;;;;;14.37;10.23;;;;;;;-141.97;56.20;47401.84;5010892;28;20186;-81
2023/08/21 01:29:15;;;;;;;13.93;10.00;;;;;;;-141.97;56.37;47384.53;5011950;28;20185;-81
2023/08/21 01:31:46;;;;;;;13.57;10.03;;;;;;;-141.97;56.41;47607.50;5012640;28;20666;-80
2023/08/21 01:34:14;;;;;;;12.73;9.83;;;;;;;-141.97;56.18;47407.59;5013056;28;20166;-81
2023/08/21 01:36:40;;;;;;;13.00;10.20;;;;;;;-141.97;55.89;47396.06;5011329;28;20182;-81
2023/08/21 01:39:06;;;;;;;14.20;10.13;;;;;;;-141.97;55.84;47428.75;5011214;28;20159;-83
2023/08/21 01:41:31;;;;;;;11.90;9.80;;;;;;;-141.97;55.76;47401.84;5012227;28;20606;-83
2023/08/21 01:43:57;;;;;;;12.30;10.00;;;;;;;-141.97;55.93;47351.88;5011256;28;20206;-83
2023/08/21 01:46:22;;;;;;;12.57;9.97;;;;;;;-141.97;55.99;47396.06;5012854;28;20171;-83
2023/08/21 01:48:48;;;;;;;14.03;9.73;;;;;;;-141.97;55.44;47492.16;5014309;28;20163;-84
2023/08/21 01:51:13;;;;;;;11.40;9.80;;;;;;;-141.97;55.00;47374.94;5012131;28;20633;-83
2023/08/21 01:53:39;;;;;;;11.70;9.50;;;;;;;-141.97;54.78;47369.16;5013271;28;20213;-82
2023/08/21 01:56:04;;;;;;;13.27;9.73;;;;;;;-141.97;54.30;47424.91;5019709;28;20197;-82
2023/08/21 01:58:29;;;;;;;15.83;9.87;;;;;;;-141.97;54.12;47424.91;5012013;28;20170;-83
2023/08/21 02:00:55;;;;;;;11.87;9.67;;;;;;;-141.97;54.21;47371.09;5010778;28;20646;-83
2023/08/21 02:03:20;;;;;;;11.17;9.53;;;;;;;-141.97;54.14;47388.38;5011036;28;20202;-83
2023/08/21 02:05:45;;;;;;;13.10;9.87;;;;;;;-141.97;54.50;47382.63;5012370;28;20234;-83
2023/08/21 02:08:15;;;;;;;12.60;9.67;;;;;;;-141.97;54.42;47407.59;5012531;28;20591;-82
2023/08/21 02:10:50;;;;;;;10.77;9.37;;;;;;;-141.97;54.37;47417.22;5010813;28;20662;-83
2023/08/21 02:13:15;;;;;;;11.87;9.87;;;;;;;-141.97;54.37;47419.13;5012315;28;20167;-83
2023/08/21 02:15:41;;;;;;;11.80;9.90;;;;;;;-141.97;54.19;47421.06;5011037;28;20205;-83
2023/08/21 02:18:06;;;;;;;12.73;9.43;;;;;;;-141.97;53.88;47438.34;5010749;28;20159;-81
2023/08/21 02:20:32;;;;;;;13.77;9.80;;;;;;;-141.97;53.82;47434.50;5006700;28;20166;-81
2023/08/21 02:22:57;;;;;;;12.17;9.53;;;;;;;-141.97;54.14;47401.84;5011469;28;20245;-81
2023/08/21 02:25:22;;;;;;;12.50;9.87;;;;;;;-141.97;54.17;47557.53;5012881;28;20163;-81
2023/08/21 02:27:48;;;;;;;12.00;9.90;;;;;;;-141.97;54.20;47396.06;5010301;28;20209;-81
2023/08/21 02:30:13;;;;;;;13.57;10.40;;;;;;;-141.97;53.82;47422.97;5009475;28;20657;-81
2023/08/21 02:32:40;;;;;;;14.67;10.60;;;;;;;-141.97;53.73;47396.06;5010414;28;20162;-81
2023/08/21 02:35:06;;;;;;;13.13;10.07;;;;;;;-141.97;53.73;47392.22;5010491;28;20163;-81
2023/08/21 02:37:32;;;;;;;14.47;10.07;;;;;;;-141.97;53.66;47373.00;5012329;28;20177;-82
2023/08/21 02:39:57;;;;;;;15.43;10.43;;;;;;;-141.97;53.71;47403.75;5018468;28;20174;-82
2023/08/21 02:42:22;;;;;;;12.50;10.13;;;;;;;-141.97;53.51;47365.31;5017479;28;20190;-83
2023/08/21 02:44:48;;;;;;;11.73;10.03;;;;;;;-141.97;53.53;47382.63;5020609;28;20155;-81
2023/08/21 02:47:13;;;;;;;14.17;10.50;;;;;;;-141.97;53.80;47388.38;5017991;28;20179;-82
2023/08/21 02:49:39;;;;;;;13.53;10.63;;;;;;;-141.97;53.73;47386.47;5015177;28;20159;-81
2023/08/21 02:52:04;;;;;;;17.57;10.57;;;;;;;-141.97;53.64;47396.06;5011348;28;20555;-81
2023/08/21 02:54:29;;;;;;;12.70;10.30;;;;;;;-141.97;53.88;47409.53;5013916;28;20336;-81
2023/08/21 02:56:55;;;;;;;15.90;10.57;;;;;;;-141.97;53.77;47403.75;5043615;28;20189;-80
2023/08/21 02:59:20;;;;;;;15.20;10.40;;;;;;;-141.97;53.50;47394.16;5030258;28;20214;-81
2023/08/21 03:01:46;;;;;;;12.80;10.60;;;;;;;-141.97;53.57;47390.31;5020352;28;20229;-83
2023/08/21 03:04:11;;;;;;;13.87;10.63;;;;;;;-141.97;53.27;47419.13;5020460;28;20199;-81
2023/08/21 03:06:36;;;;;;;19.17;12.00;;;;;;;-141.97;53.18;47396.06;5015042;28;20233;-81
2023/08/21 03:09:02;;;;;;;18.07;12.00;;;;;;;-141.97;53.05;47415.28;5014823;28;20170;-81
2023/08/21 03:11:27;;;;;;;14.77;11.20;;;;;;;-141.97;53.34;47411.44;5021584;28;20186;-81
2023/08/21 03:13:53;;;;;;;15.20;10.53;;;;;;;-141.97;53.81;47380.69;5023023;28;20293;-82
2023/08/21 03:16:19;;;;;;;14.57;10.80;;;;;;;-141.97;53.88;47419.13;5017564;28;20175;-81
2023/08/21 03:18:59;;;;;;;13.70;10.90;;;;;;;-141.97;54.17;47403.75;5016151;28;20197;-82
2023/08/21 03:21:24;;;;;;;13.17;10.53;;;;;;;-141.97;54.18;47380.69;5014825;28;20162;-81
2023/08/21 03:23:52;;;;;;;14.63;10.90;;;;;;;-141.97;54.28;47424.91;5009288;28;20293;-81
2023/08/21 03:26:17;;;;;;;22.60;11.40;;;;;;;-141.97;54.28;47499.84;5011579;28;20256;-84
2023/08/21 03:28:42;;;;;;;33.90;11.70;;;;;;;-141.97;54.25;47636.31;5014448;28;20480;-82
2023/08/21 03:31:08;;;;;;;26.83;11.80;;;;;;;-141.97;54.92;47426.81;5014450;28;20262;-83
2023/08/21 03:33:33;;;;;;;19.90;10.57;;;;;;;-141.97;55.17;47346.09;5014837;28;20665;-80
2023/08/21 03:35:58;;;;;;;12.67;10.83;;;;;;;-141.97;55.01;47409.53;5013240;28;20225;-80
2023/08/21 03:38:24;;;;;;;13.77;10.27;;;;;;;-141.97;55.37;47396.06;5013600;28;20201;-80
2023/08/21 03:40:49;;;;;;;14.67;10.03;;;;;;;-141.97;55.37;47386.47;5013670;28;20544;-81
2023/08/21 03:43:14;;;;;;;13.63;10.57;;;;;;;-141.97;55.37;47403.75;5013456;28;20191;-81
2023/08/21 03:45:40;;;;;;;13.20;10.27;;;;;;;-141.97;55.23;47515.22;5013892;28;20272;-83
2023/08/21 03:48:05;;;;;;;16.27;10.83;;;;;;;-141.97;55.42;47438.34;5012751;28;20162;-80
2023/08/21 03:50:31;;;;;;;20.63;10.93;;;;;;;-141.97;55.72;47415.28;5013677;28;20197;-82
2023/08/21 03:52:56;;;;;;;17.07;9.93;;;;;;;-141.97;55.76;47403.75;5013302;28;20222;-81
2023/08/21 03:55:21;;;;;;;20.47;10.23;;;;;;;-141.97;55.40;47392.22;5012466;28;20167;-81
2023/08/21 03:57:47;;;;;;;13.73;10.33;;;;;;;-141.97;55.46;47422.97;5013463;28;20479;-80
2023/08/21 04:00:13;;;;;;;14.17;9.87;;;;;;;-141.97;55.52;47434.50;5013915;28;20170;-80
2023/08/21 04:02:38;;;;;;;13.67;10.07;;;;;;;-141.97;55.64;47396.06;5013862;28;20734;-81
2023/08/21 04:05:04;;;;;;;12.80;10.17;;;;;;;-141.97;55.71;47409.53;5013512;28;20177;-79
2023/08/21 04:07:29;;;;;;;23.17;10.83;;;;;;;-141.97;55.93;47417.22;5013942;28;20163;-79
2023/08/21 04:09:55;;;;;;;18.27;11.10;;;;;;;-141.97;56.07;47424.91;5014546;28;20250;-82
2023/08/21 04:12:20;;;;;;;16.23;10.83;;;;;;;-141.97;56.10;47407.59;5012744;28;20163;-82
2023/08/21 04:14:45;;;;;;;16.90;11.10;;;;;;;-141.97;55.98;47421.06;5011065;28;20186;-83
2023/08/21 04:17:11;;;;;;;17.63;11.00;;;;;;;-141.97;55.44;47582.50;5010801;28;20619;-83
2023/08/21 04:19:36;;;;;;;20.93;11.00;;;;;;;-141.97;55.61;47403.75;5013081;28;20175;-82
2023/08/21 04:22:02;;;;;;;19.63;11.63;;;;;;;-141.97;55.12;47419.13;5012658;28;20285;-83
2023/08/21 04:24:27;;;;;;;20.87;10.70;;;;;;;-141.97;54.77;47365.31;5012855;28;20254;-83
2023/08/21 04:26:53;;;;;;;19.93;10.83;;;;;;;-141.97;54.40;47424.91;5012375;28;20309;-83
2023/08/21 04:29:18;;;;;;;13.90;10.63;;;;;;;-141.97;54.00;47411.44;5011730;28;20290;-82
2023/08/21 04:31:43;;;;;;;15.07;11.00;;;;;;;-141.97;53.66;47588.28;5012619;28;20241;-83
2023/08/21 04:34:09;;;;;;;17.80;10.90;;;;;;;-141.97;53.44;47413.38;5013191;28;20257;-83
2023/08/21 04:36:34;;;;;;;16.60;10.60;;;;;;;-141.97;53.20;47419.13;5016066;28;20178;-81
2023/08/21 04:38:59;;;;;;;16.27;10.87;;;;;;;-141.97;53.09;47557.53;5014901;28;20247;-82
2023/08/21 04:41:25;;;;;;;17.30;10.87;;;;;;;-141.97;52.99;47257.69;5027578;28;20197;-83
2023/08/21 04:43:50;;;;;;;22.23;11.23;;;;;;;-141.97;52.63;47359.56;5012850;28;20704;-82
2023/08/21 04:46:15;;;;;;;18.73;11.43;;;;;;;-141.97;52.32;47430.66;5017101;28;20190;-82
2023/08/21 04:48:41;;;;;;;20.63;10.77;;;;;;;-141.97;52.72;47419.13;5021299;28;20183;-81
2023/08/21 04:51:06;;;;;;;20.63;11.13;;;;;;;-141.97;53.18;47344.19;5018048;28;20229;-81
2023/08/21 04:53:31;;;;;;;23.17;10.47;;;;;;;-141.97;53.23;47403.75;5019671;28;20692;-80
2023/08/21 04:56:00;;;;;;;27.07;11.23;;;;;;;-141.97;52.95;47346.09;5013846;28;20178;-81
2023/08/21 04:58:25;;;;;;;21.90;11.00;;;;;;;-141.97;52.69;47609.41;5011828;28;20541;-81
2023/08/21 05:00:51;;;;;;;22.07;11.33;;;;;;;-141.97;52.58;47386.47;5011927;28;20239;-81
2023/08/21 05:03:16;;;;;;;22.50;10.60;;;;;;;-141.97;52.75;47411.44;5012166;28;20190;-82
2023/08/21 05:05:41;;;;;;;19.77;10.97;;;;;;;-141.97;52.50;47392.22;5011425;28;20190;-81
2023/08/21 05:08:07;;;;;;;18.53;10.73;;;;;;;-141.97;52.24;47422.97;4998074;28;20199;-83
2023/08/21 05:10:32;;;;;;;29.90;11.33;;;;;;;-141.97;51.97;47369.16;5001897;28;20179;-81
2023/08/21 05:12:58;;;;;;;22.90;11.53;;;;;;;-141.97;51.32;47303.81;5011907;28;20166;-81
2023/08/21 05:15:23;;;;;;;21.03;11.30;;;;;;;-141.97;51.12;47388.38;5014258;28;20173;-85
2023/08/21 05:17:49;;;;;;;20.27;10.80;;;;;;;-141.97;50.55;47403.75;5014004;28;20202;-82
2023/08/21 05:20:14;;;;;;;39.30;19.87;;;;;;;-141.97;50.06;47390.31;5013446;28;20649;-80
2023/08/21 05:22:40;;;;;;;18.20;9.93;;;;;;;-141.97;49.79;47386.47;5012872;28;20237;-79
2023/08/21 05:25:07;;;;;;;16.00;9.87;;;;;;;-141.97;49.71;47411.44;5012521;28;20253;-79
2023/08/21 05:27:32;;;;;;;15.17;10.13;;;;;;;-141.97;49.77;47394.16;5011193;28;20169;-79
2023/08/21 05:29:58;;;;;;;14.53;10.20;;;;;;;-141.97;49.22;47349.94;5011858;28;20253;-80
2023/08/21 05:32:23;;;;;;;15.47;10.23;;;;;;;-141.97;48.82;47374.94;5012244;28;20596;-81
2023/08/21 05:34:48;;;;;;;12.40;9.80;;;;;;;-141.97;48.63;47374.94;4982665;28;20242;-79
2023/08/21 05:37:14;;;;;;;14.33;10.07;;;;;;;-141.97;48.24;47342.25;5007002;28;20667;-79
2023/08/21 05:39:39;;;;;;;13.40;9.73;;;;;;;-141.97;47.80;47357.63;5022813;28;20201;-79
2023/08/21 05:42:05;;;;;;;15.20;9.20;;;;;;;-141.97;47.37;47374.94;5018652;28;20228;-79
2023/08/21 05:44:30;;;;;;;16.13;10.00;;;;;;;-141.97;47.22;47394.16;5015025;28;20639;-80
2023/08/21 05:46:57;;;;;;;14.70;9.00;;;;;;;-141.97;46.37;47394.16;5014807;28;20289;-80
2023/08/21 05:49:23;;;;;;;11.43;9.20;;;;;;;-141.97;46.13;47338.41;5012365;28;20178;-79
2023/08/21 05:51:48;;;;;;;17.27;10.05;;;;;;;-141.97;45.89;47288.44;5012258;28;20171;-79
2023/08/21 05:54:14;;;;;;;12.98;9.10;;;;;;;-141.97;45.24;47349.94;5011809;28;20234;-80
2023/08/21 05:56:39;;;;;;;13.02;9.00;;;;;;;-141.97;45.00;47361.47;5012476;28;20710;-79
2023/08/21 05:59:04;;;;;;;11.15;9.23;;;;;;;-141.97;44.65;47357.63;5011395;28;20648;-79
2023/08/21 06:01:30;;;;;;;14.07;9.35;;;;;;;-141.97;44.13;47307.66;5012813;28;20228;-79
2023/08/21 06:03:55;;;;;;;12.70;8.35;;;;;;;-141.97;43.93;47373.00;5012515;28;20294;-79
2023/08/21 06:06:20;;;;;;;15.60;9.00;;;;;;;-141.97;43.43;47338.41;5011292;28;20194;-79
2023/08/21 06:08:46;;;;;;;14.73;8.80;;;;;;;-141.97;43.15;47313.44;5010631;28;20255;-78
2023/08/21 06:11:11;;;;;;;13.25;8.98;;;;;;;-141.97;42.90;47346.09;5010074;28;20766;-80
2023/08/21 06:13:37;;;;;;;13.10;8.95;;;;;;;-141.97;42.45;47338.41;5010620;28;20166;-79
2023/08/21 06:16:02;;;;;;;11.98;8.68;;;;;;;-141.97;42.14;47351.88;5010825;28;20169;-80
2023/08/21 06:18:28;;;;;;;12.48;8.57;;;;;;;-141.97;41.61;47311.50;5010601;28;20305;-79
2023/08/21 06:20:55;;;;;;;14.85;9.05;;;;;;;-141.97;41.79;47326.88;5010829;28;20179;-81
2023/08/21 06:23:21;;;;;;;13.82;8.77;;;;;;;-141.97;41.27;47338.41;5011156;28;20253;-81
2023/08/21 06:25:50;;;;;;;13.63;8.55;;;;;;;-141.97;40.98;47342.25;5012597;28;20613;-81
2023/08/21 06:28:15;;;;;;;14.15;8.80;;;;;;;-141.97;40.75;47344.19;5013512;28;20171;-82
2023/08/21 06:30:41;;;;;;;11.25;8.50;;;;;;;-141.97;40.05;47305.75;5010968;28;20170;-81
2023/08/21 06:33:06;;;;;;;13.82;8.40;;;;;;;-141.97;39.59;47305.75;5010658;28;20159;-77
2023/08/21 06:35:31;;;;;;;9.43;8.30;;;;;;;-141.97;39.84;47363.41;5011903;28;20319;-78
2023/08/21 06:37:57;;;;;;;10.48;7.15;;;;;;;-141.97;39.33;47324.97;5009936;28;20500;-76
2023/08/21 06:40:22;;;;;;;14.90;8.88;;;;;;;-141.97;39.39;47257.69;5011354;28;20171;-78
2023/08/21 06:42:50;;;;;;;13.10;8.15;;;;;;;-141.97;38.68;47324.97;5011569;28;20197;-76
2023/08/21 06:45:16;;;;;;;15.55;8.35;;;;;;;-141.97;38.96;47336.50;5011562;28;20675;-77
2023/08/21 06:47:41;;;;;;;9.55;7.72;;;;;;;-141.97;38.44;47326.88;5014779;28;20175;-79
2023/08/21 06:50:07;;;;;;;13.63;8.07;;;;;;;-141.97;38.50;47299.97;5010249;28;20207;-75
2023/08/21 06:52:32;;;;;;;12.55;7.50;;;;;;;-141.97;38.68;47344.19;5009359;28;20596;-75
2023/08/21 06:54:58;;;;;;;12.23;8.05;;;;;;;-141.97;38.61;47328.81;5009811;28;20167;-76
2023/08/21 06:57:23;;;;;;;12.35;8.38;;;;;;;-141.97;38.03;47290.38;5013719;28;20198;-75
2023/08/21 06:59:48;;;;;;;12.05;8.30;;;;;;;-141.97;37.89;47319.19;5011748;28;20174;-76
2023/08/21 07:02:14;;;;;;;11.77;7.93;;;;;;;-141.97;38.00;47296.13;5010497;28;20641;-75
2023/08/21 07:04:39;;;;;;;15.35;8.27;;;;;;;-141.97;38.34;47276.91;5010720;28;20166;-76
2023/08/21 07:07:04;;;;;;;14.02;8.30;;;;;;;-141.97;38.07;47298.06;5009361;28;20624;-76
2023/08/21 07:09:30;;;;;;;15.05;8.88;;;;;;;-141.97;37.51;47284.59;5008122;28;20185;-76
2023/08/21 07:11:56;;;;;;;13.93;8.10;;;;;;;-141.97;37.06;47296.13;5009399;28;20242;-75
2023/08/21 07:14:22;;;;;;;11.77;7.75;;;;;;;-141.97;36.40;47323.03;5008775;28;20731;-75
2023/08/21 07:16:47;;;;;;;12.57;8.13;;;;;;;-141.97;36.49;47259.63;4999457;28;20241;-77
2023/08/21 07:19:12;;;;;;;13.52;8.20;;;;;;;-141.97;36.13;47298.06;5009010;28;20257;-78
2023/08/21 07:21:38;;;;;;;13.65;7.85;;;;;;;-141.97;36.24;47303.81;5011059;28;20649;-77
2023/08/21 07:24:04;;;;;;;15.13;7.78;;;;;;;-141.97;35.95;47303.81;5011477;28;20189;-77
2023/08/21 07:26:30;;;;;;;11.15;7.60;;;;;;;-141.97;35.98;47284.59;5010695;28;20255;-77
2023/08/21 07:28:55;;;;;;;11.23;7.80;;;;;;;-141.97;35.94;47284.59;5011924;28;20239;-76
2023/08/21 07:31:21;;;;;;;11.27;7.85;;;;;;;-141.97;36.01;47257.69;5013614;28;20182;-76
2023/08/21 07:33:46;;;;;;;9.50;7.47;;;;;;;-141.97;35.08;47253.84;5013112;28;20174;-76
2023/08/21 07:36:17;;;;;;;9.50;7.70;;;;;;;-141.97;35.02;47273.06;5011676;28;20571;-76
2023/08/21 07:38:43;;;;;;;11.25;7.57;;;;;;;-141.97;34.79;47292.28;5012996;28;20158;-78
2023/08/21 07:41:10;;;;;;;10.43;7.40;;;;;;;-141.97;34.16;47273.06;5013115;28;20174;-78
2023/08/21 07:43:45;;;;;;;11.50;7.45;;;;;;;-141.97;34.12;47271.16;5012524;28;20202;-78
2023/08/21 07:46:15;;;;;;;9.52;7.18;;;;;;;-141.97;33.70;47253.84;5012202;28;20166;-78
2023/08/21 07:48:40;;;;;;;10.82;7.05;;;;;;;-141.97;33.33;47213.50;5012920;28;20154;-77
2023/08/21 07:51:06;;;;;;;11.43;7.38;;;;;;;-141.97;32.81;47246.16;5012350;28;20349;-78
2023/08/21 07:53:31;;;;;;;11.77;7.32;;;;;;;-141.97;33.53;47263.47;5012430;28;20252;-77
2023/08/21 07:55:58;;;;;;;11.77;7.35;;;;;;;-141.97;33.51;47255.78;5011152;28;20186;-78
2023/08/21 07:58:23;;;;;;;9.93;6.60;;;;;;;-141.97;32.44;47255.78;5012330;28;20516;-77
2023/08/21 08:00:49;;;;;;;9.90;6.63;;;;;;;-141.97;32.05;47221.19;5011114;28;20183;-77
2023/08/21 08:03:14;;;;;;;13.57;6.90;;;;;;;-141.97;31.90;47242.31;5012004;28;20203;-77
2023/08/21 08:05:41;;;;;;;9.30;6.68;;;;;;;-141.97;31.53;47215.41;5012091;28;20167;-78
2023/08/21 08:08:07;;;;;;;8.05;6.45;;;;;;;-141.97;31.35;47203.88;5012022;28;20178;-78
2023/08/21 08:10:32;;;;;;;10.23;6.68;;;;;;;-141.97;31.04;47200.03;5012054;28;20177;-79
2023/08/21 08:12:58;;;;;;;12.25;6.43;;;;;;;-141.97;31.23;47203.88;5012855;28;20171;-79
2023/08/21 08:15:23;;;;;;;11.15;6.80;;;;;;;-141.97;30.62;47200.03;5002085;28;20167;-79
2023/08/21 08:17:52;;;;;;;8.50;6.80;;;;;;;-141.97;30.69;47190.44;5019861;28;20231;-77
2023/08/21 08:20:18;;;;;;;8.95;6.80;;;;;;;-141.97;30.77;47192.34;5026740;28;20229;-79
2023/08/21 08:22:43;;;;;;;11.70;6.68;;;;;;;-141.97;30.23;47200.03;5019016;28;20202;-80
2023/08/21 08:25:10;;;;;;;10.98;6.25;;;;;;;-141.97;30.02;47201.97;5012036;28;20174;-81
2023/08/21 08:27:35;;;;;;;7.10;6.25;;;;;;;-141.97;29.70;47188.50;5012377;28;20182;-78
2023/08/21 08:30:01;;;;;;;10.40;6.55;;;;;;;-141.97;29.80;47180.81;5010767;28;20584;-80
2023/08/21 08:32:26;;;;;;;7.72;5.95;;;;;;;-141.97;30.55;47201.97;5012847;28;20194;-77
2023/08/21 08:34:52;;;;;;;7.35;6.57;;;;;;;-141.97;30.34;47228.88;5012553;28;20191;-78
2023/08/21 08:37:18;;;;;;;8.60;6.80;;;;;;;-141.97;30.22;47176.97;5012653;28;20197;-83
2023/08/21 08:39:43;;;;;;;9.23;7.18;;;;;;;-141.97;30.21;47173.13;5027001;28;20265;-81
2023/08/21 08:42:10;;;;;;;7.60;6.60;;;;;;;-141.97;29.82;47200.03;5013830;28;20195;-84
2023/08/21 08:44:38;;;;;;;10.43;6.50;;;;;;;-141.97;29.54;47184.66;5014604;28;20242;-82
2023/08/21 08:47:04;;;;;;;9.45;7.20;;;;;;;-141.97;29.28;47165.44;5021046;28;20167;-81
2023/08/21 08:49:30;;;;;;;10.50;6.47;;;;;;;-141.97;29.11;47140.47;5015704;28;20206;-83
2023/08/21 08:52:00;;;;;;;10.63;6.82;;;;;;;-141.97;28.98;47073.19;5018205;28;20225;-84
2023/08/21 08:54:26;;;;;;;8.93;6.97;;;;;;;-141.97;28.62;47150.06;5019948;28;20257;-82
2023/08/21 08:56:53;;;;;;;10.30;6.68;;;;;;;-141.97;28.35;47088.56;5023765;28;20178;-84
2023/08/21 08:59:18;;;;;;;12.73;7.35;;;;;;;-141.97;28.10;47107.78;5025350;28;20174;-82
2023/08/21 09:01:44;;;;;;;9.07;6.90;;;;;;;-141.97;27.99;47111.63;5020441;28;20187;-83
2023/08/21 09:04:09;;;;;;;8.75;6.70;;;;;;;-141.97;28.17;47153.91;5017631;28;20175;-82
2023/08/21 09:06:36;;;;;;;17.50;7.00;;;;;;;-141.97;28.03;47100.09;5015129;28;20170;-83
2023/08/21 09:09:01;;;;;;;8.23;6.95;;;;;;;-141.97;27.76;47263.47;5018106;28;20217;-80
2023/08/21 09:11:27;;;;;;;9.43;6.78;;;;;;;-141.97;27.65;47144.31;5014704;28;20224;-81
2023/08/21 09:13:54;;;;;;;11.57;6.53;;;;;;;-141.97;28.12;47077.03;5014448;28;20162;-81
2023/08/21 09:16:20;;;;;;;9.52;6.53;;;;;;;-141.97;27.97;47113.56;5004710;28;20300;-81
2023/08/21 09:18:50;;;;;;;11.68;7.00;;;;;;;-141.97;27.89;47004.00;5012193;28;20520;-81
2023/08/21 09:21:20;;;;;;;7.95;6.40;;;;;;;-141.97;27.79;47134.69;5013972;28;20171;-81
2023/08/21 09:23:46;;;;;;;11.38;6.88;;;;;;;-141.97;27.48;47100.09;5013978;28;20191;-82
2023/08/21 09:26:20;;;;;;;8.63;6.75;;;;;;;-141.97;27.18;47071.28;5013898;28;20170;-81
2023/08/21 09:28:46;;;;;;;13.45;8.15;;;;;;;-141.97;26.75;47061.66;5013456;28;20167;-81
2023/08/21 09:31:11;;;;;;;10.30;6.72;;;;;;;-141.97;26.67;47057.81;5013910;28;20265;-81
2023/08/21 09:33:37;;;;;;;10.07;6.60;;;;;;;-141.97;26.58;47067.44;5014220;28;20182;-82
2023/08/21 09:36:04;;;;;;;11.10;6.95;;;;;;;-141.97;27.39;47069.34;5013141;28;20171;-80
2023/08/21 09:38:30;;;;;;;9.88;6.82;;;;;;;-141.97;27.37;47094.34;5013379;28;20166;-81
2023/08/21 09:40:56;;;;;;;9.52;6.55;;;;;;;-141.97;26.37;47077.03;5001683;28;20183;-82
2023/08/21 09:43:25;;;;;;;7.75;6.60;;;;;;;-141.97;27.16;47071.28;4993278;28;20792;-82
2023/08/21 09:45:54;;;;;;;7.25;6.50;;;;;;;-141.97;26.81;47090.50;4993277;28;20655;-81
2023/08/21 09:48:29;;;;;;;9.50;6.40;;;;;;;-141.97;26.68;47042.44;4993584;28;20630;-81
2023/08/21 09:50:55;;;;;;;8.93;6.63;;;;;;;-141.97;26.38;47084.72;5006776;28;20181;-82
2023/08/21 09:53:25;;;;;;;11.30;6.28;;;;;;;-141.97;26.45;47048.22;5014686;28;20222;-81
2023/08/21 09:55:55;;;;;;;11.25;6.32;;;;;;;-141.97;26.25;47057.81;5012143;28;20250;-81
2023/08/21 09:58:20;;;;;;;7.70;6.47;;;;;;;-141.97;26.75;47078.97;5014687;28;20185;-82
2023/08/21 10:00:48;;;;;;;8.95;6.18;;;;;;;-141.97;26.31;47080.88;5013794;28;20182;-83
2023/08/21 10:03:19;;;;;;;11.73;6.40;;;;;;;-141.97;26.24;47042.44;5013076;28;20221;-82
2023/08/21 10:05:47;;;;;;;14.07;6.75;;;;;;;-141.97;26.32;47048.22;5014606;28;20170;-80
2023/08/21 10:08:15;;;;;;;9.90;6.03;;;;;;;-141.97;26.04;47025.16;5013866;28;20205;-81
2023/08/21 10:10:40;;;;;;;8.60;6.28;;;;;;;-141.97;26.12;47055.91;5012372;28;20170;-81
2023/08/21 10:13:08;;;;;;;11.20;6.47;;;;;;;-141.97;25.80;47057.81;5016963;28;20158;-81
2023/08/21 10:15:35;;;;;;;14.25;6.55;;;;;;;-141.97;25.71;47082.81;5007079;28;20181;-80
2023/08/21 10:18:23;;;;;;;9.32;6.40;;;;;;;-141.97;26.05;47096.25;5015478;28;20204;-80
2023/08/21 10:20:50;;;;;;;10.68;7.93;;;;;;;-141.97;26.09;47098.19;5014525;28;20246;-81
2023/08/21 10:23:29;;;;;;;10.00;6.30;;;;;;;-141.97;25.66;47084.72;5023022;28;20183;-82
2023/08/21 10:25:59;;;;;;;9.05;6.10;;;;;;;-141.97;25.41;47050.13;5016078;28;20181;-81
2023/08/21 10:28:24;;;;;;;12.55;6.05;;;;;;;-141.97;25.70;47098.19;5015282;28;20163;-81
2023/08/21 10:30:50;;;;;;;12.25;6.53;;;;;;;-141.97;25.84;47050.13;5016990;28;20170;-80
2023/08/21 10:33:15;;;;;;;11.07;5.97;;;;;;;-141.97;26.08;47080.88;5015751;28;20159;-81
2023/08/21 10:35:40;;;;;;;9.93;6.20;;;;;;;-141.97;25.60;47067.44;5015966;28;20210;-79
2023/08/21 10:38:15;;;;;;;9.23;6.35;;;;;;;-141.97;25.95;47073.19;5016673;28;20611;-80
2023/08/21 10:41:01;;;;;;;7.57;6.28;;;;;;;-141.97;25.76;47057.81;5014437;28;20178;-80
2023/08/21 10:43:44;;;;;;;7.60;6.65;;;;;;;-141.97;26.18;47053.97;5013967;28;20585;-81
2023/08/21 10:46:10;;;;;;;6.20;5.60;;;;;;;-141.97;26.00;47055.91;4998857;28;20178;-80
2023/08/21 10:48:36;;;;;;;6.60;5.70;;;;;;;-141.97;25.76;47073.19;5013396;28;20203;-81
2023/08/21 10:51:04;;;;;;;10.60;5.65;;;;;;;-141.97;25.60;47046.28;5017082;28;20175;-80
2023/08/21 10:53:31;;;;;;;9.95;5.93;;;;;;;-141.97;25.49;47065.50;5017815;28;20745;-79
2023/08/21 10:55:57;;;;;;;8.63;5.80;;;;;;;-141.97;25.35;47078.97;5013579;28;20759;-82
2023/08/21 10:58:22;;;;;;;8.65;6.30;;;;;;;-141.97;25.58;47071.28;5026004;28;20186;-80
2023/08/21 11:00:58;;;;;;;9.77;6.18;;;;;;;-141.97;25.76;47075.13;5033093;28;20183;-83
2023/08/21 11:03:23;;;;;;;9.38;6.07;;;;;;;-141.97;26.38;47246.16;5028569;28;20611;-80